EKAHESGG

Guest
Details From EKAH - Aarhus
To ESGG - Goteborg Landvetter
Flight Number -
Tags generated
Created
Modified
Stats Distance 98 nm / 182 km
Max Altitude 8,000 ft / 2,438 m
Waypoints 3
Social Downloads 4
Likes 0
Share VATSIM

Download

Looking for another format? Having issues loading an existing format? Contact us
Advertisement - Login to hide

Notes

Basic altitude profile: - Ascent Rate: 2500ft/min - Ascent Speed: 250kts - Cruise Altitude: 35000ft - Cruise Speed: 420kts - Descent Rate: 1500ft/min - Descent Speed: 250kts Options: - Use NATs: yes - Use PACOTS: yes - Use low airways: yes - Use high airways: yes

Route

EKAH VADIN ESGG

ID Type Via Altitude Latitude Longitude Leg Dist Tot Dist Heading (true) Name
O EKAH APT - 0 ft / 0 m 56.30426˚ 10.61945˚ - 0 nm - Aarhus
VADIN FIX - 8,000 ft / 2,438 m 57.13778˚ 11.64389˚ 60 nm 60 nm 34° / 34° -
O ESGG APT - 0 ft / 0 m 57.66284˚ 12.27982˚ 37 nm 98 nm 33° / 33° Goteborg Landvetter

Altitude Profile

Advertisement - Login to hide

EKAH

Details ICAO EKAH (AAR)
Name Aarhus
Region Denmark / Faroe Islands
Timezone Europe/Copenhagen (UTC+2.0)
Stats Elevation 82 ft / 25 m (AMSL)
Location 56.304265° 10.619452°
Runways 2
Magnetic Variation 3.118° E

METAR

EKAH 240820Z AUTO 13007KT 100V180 9999NDV NCD 22/11 Q1029

Decode

TAF

TAF EKAH 232326Z 2400/2424 12005KT CAVOK= TAF EKBI 232326Z 2400/2424 09005KT CAVOK BECMG 2408/2411 11012KT TEMPO 2411/2417 10012G25KT BECMG 2417/2420 09005KT

Decode

Departure Runways

ID Width Length Bearing (true) Bearing (mag) Surface Threshold Offset Overrun Length
10L 75 ft / 23 m 9,081 ft / 2,768 m 100.30° 97.18° Asphalt 0 ft / 0 m 0 ft / 0 m
10R 148 ft / 45 m 8,837 ft / 2,693 m 100.29° 97.17° Asphalt 0 ft / 0 m 902 ft / 275 m
28L 148 ft / 45 m 8,837 ft / 2,693 m 280.33° 277.21° Asphalt 0 ft / 0 m 738 ft / 225 m
28R 75 ft / 23 m 9,081 ft / 2,768 m 280.34° 277.22° Asphalt 0 ft / 0 m 0 ft / 0 m

ESGG

Details ICAO ESGG (GOT)
Name Goteborg Landvetter
Region Sweden
Timezone Europe/Stockholm (UTC+2.0)
Stats Elevation 506 ft / 154 m (AMSL)
Location 57.662836° 12.279819°
Runways 1
Magnetic Variation 3.784° E

METAR

ESGG 240820Z 17007KT 140V210 CAVOK 21/09 Q1030

Decode

TAF

TAF TAF ESGG 240530Z 2406/2506 11006KT CAVOK PROB40 2412/2420 28010KT

Decode

Destination Runways

ID Width Length Bearing (true) Bearing (mag) Surface Threshold Offset Overrun Length
03 148 ft / 45 m 10,804 ft / 3,293 m 25.94° 22.16° Asphalt 0 ft / 0 m 207 ft / 63 m
21 148 ft / 45 m 10,804 ft / 3,293 m 205.96° 202.18° Asphalt 0 ft / 0 m 207 ft / 63 m

Approach Navaids

Runway Type Ident Frequency Range Bearing (true) Bearing (mag) Slope Elevation
03 Localiser SSG 110.30 MHz 18 nm / 33 km 25.98° 22.19° - 506 ft / 154 m (AMSL)
03 Glidescope SSG 110.30 MHz 10 nm / 19 km 25.95° 22.17° 3.00° 506 ft / 154 m (AMSL)
21 Localiser NGG 108.50 MHz 18 nm / 33 km 205.92° 202.14° - 506 ft / 154 m (AMSL)
21 Glidescope NGG 108.50 MHz 10 nm / 19 km 205.95° 202.17° 3.00° 506 ft / 154 m (AMSL)

Popular Alternatives